Time;durP1;ratioP1;P1;durP2;ratioP2;P2;SDS_P1;SDS_P2;PMS_P1;PMS_P2;Temp;Humidity;BMP_temperature;BMP_pressure;BME280_temperature;BME280_humidity;BME280_pressure;Samples;Min_cycle;Max_cycle;Signal;HPM_P1;HPM_P2
2021/06/14 00:03:33;;;;;;;;;5.75;5.75;;;;;25.59;30.71;101413.28;4917029;28;45739;-79
2021/06/14 00:05:59;;;;;;;;;5.00;5.00;;;;;25.56;30.57;101419.00;4917101;28;46944;-80
2021/06/14 00:08:25;;;;;;;;;5.50;5.00;;;;;25.55;30.99;101420.81;4917185;28;45983;-79
2021/06/14 00:10:53;;;;;;;;;7.25;5.00;;;;;25.47;31.00;101407.50;4917235;28;45584;-80
2021/06/14 00:19:25;;;;;;;;;3.75;3.75;;;;;25.24;31.39;101398.72;4917094;28;45915;-79
2021/06/14 00:21:52;;;;;;;;;5.00;5.00;;;;;25.22;31.04;101411.47;4917416;28;45574;-81
2021/06/14 00:24:17;;;;;;;;;6.00;6.00;;;;;25.24;31.49;101420.19;4917213;28;45600;-79
2021/06/14 00:26:43;;;;;;;;;5.75;4.50;;;;;25.08;31.36;101403.25;4915709;28;47369;-80
2021/06/14 00:29:08;;;;;;;;;5.75;5.00;;;;;25.06;31.68;101405.28;4917630;28;46715;-80
2021/06/14 00:31:34;;;;;;;;;6.50;4.75;;;;;25.06;32.16;101407.13;4900107;28;45585;-78
2021/06/14 00:33:59;;;;;;;;;5.50;4.75;;;;;24.89;31.81;101389.53;4917327;28;45788;-79
2021/06/14 00:36:25;;;;;;;;;3.00;3.00;;;;;25.06;31.95;101421.38;4920770;28;45647;-80
2021/06/14 00:38:50;;;;;;;;;4.00;4.00;;;;;25.02;32.25;101421.94;4922276;28;45921;-79
2021/06/14 00:41:19;;;;;;;;;4.00;3.75;;;;;24.76;32.44;101382.09;4921354;28;45675;-81
2021/06/14 00:43:46;;;;;;;;;5.00;4.50;;;;;24.75;32.49;101387.66;4920363;28;45589;-80
2021/06/14 00:46:13;;;;;;;;;4.25;3.75;;;;;24.90;32.63;101426.06;4917968;28;46266;-81
2021/06/14 00:48:38;;;;;;;;;5.25;4.75;;;;;24.84;32.57;101422.22;4916522;28;46087;-81
2021/06/14 00:51:07;;;;;;;;;4.00;4.00;;;;;24.80;32.52;101423.63;4916592;28;45848;-80
2021/06/14 00:53:37;;;;;;;;;4.00;3.25;;;;;24.73;32.35;101419.16;4916842;28;45780;-81
2021/06/14 00:56:09;;;;;;;;;6.00;6.00;;;;;24.71;32.94;101421.19;4917543;28;46809;-80
2021/06/14 00:58:36;;;;;;;;;4.00;4.00;;;;;24.52;32.49;101401.91;4917147;28;45835;-80
2021/06/14 01:04:23;;;;;;;;;3.75;3.75;;;;;24.55;32.83;101406.09;4919328;28;45589;-79
2021/06/14 01:06:49;;;;;;;;;4.75;4.25;;;;;24.52;33.00;101418.00;4918166;28;45604;-78
2021/06/14 01:09:15;;;;;;;;;5.50;4.75;;;;;24.51;33.25;101419.00;4920834;28;46337;-81
2021/06/14 01:11:53;;;;;;;;;4.75;4.00;;;;;24.48;33.57;101418.53;4901100;28;45684;-79
2021/06/14 01:14:50;;;;;;;;;5.50;5.50;;;;;24.42;33.09;101422.75;4916354;28;45762;-78
2021/06/14 01:17:34;;;;;;;;;3.00;3.00;;;;;24.34;33.35;101408.63;4915859;28;45773;-79
2021/06/14 01:20:04;;;;;;;;;5.00;3.75;;;;;24.35;33.29;101418.28;4916054;28;45951;-79
2021/06/14 01:23:12;;;;;;;;;5.00;4.00;;;;;24.31;34.19;101414.31;4898359;28;45781;-78
2021/06/14 01:25:58;;;;;;;;;5.25;4.00;;;;;24.22;34.12;101403.66;4916963;28;45773;-80
2021/06/14 01:28:25;;;;;;;;;5.00;5.00;;;;;24.22;34.35;101405.50;4916171;28;45831;-78
2021/06/14 01:30:52;;;;;;;;;5.00;5.00;;;;;24.19;34.33;101409.38;4916099;28;45738;-82
2021/06/14 01:33:22;;;;;;;;;5.00;4.25;;;;;24.16;34.37;101403.50;4915659;28;46110;-80
2021/06/14 01:35:52;;;;;;;;;3.75;3.25;;;;;24.12;33.92;101396.84;4916055;28;46013;-80
2021/06/14 01:38:20;;;;;;;;;5.50;5.00;;;;;24.09;34.94;101390.00;4916102;28;45697;-80
2021/06/14 01:40:48;;;;;;;;;5.50;5.00;;;;;24.08;34.17;101382.13;4916023;28;46317;-82
2021/06/14 01:43:16;;;;;;;;;6.00;6.00;;;;;24.05;34.93;101382.50;4915644;28;45800;-82
2021/06/14 01:45:46;;;;;;;;;5.00;5.00;;;;;24.02;34.59;101381.00;4898866;28;45868;-80
2021/06/14 01:48:13;;;;;;;;;7.00;6.25;;;;;23.81;34.75;101346.84;4916447;28;46712;-80
2021/06/14 01:50:40;;;;;;;;;7.00;6.00;;;;;23.79;34.81;101346.19;4916218;28;46272;-79
2021/06/14 01:53:06;;;;;;;;;6.75;5.50;;;;;23.84;34.96;101356.38;4916272;28;45601;-81
2021/06/14 01:55:33;;;;;;;;;5.00;5.00;;;;;23.88;35.64;101364.88;4915738;28;45770;-79
2021/06/14 01:57:59;;;;;;;;;8.25;8.00;;;;;23.65;35.96;101330.03;4915375;28;45526;-79
2021/06/14 02:00:25;;;;;;;;;7.25;7.00;;;;;23.74;35.60;101351.25;4915505;28;46115;-79
2021/06/14 02:02:52;;;;;;;;;6.00;6.00;;;;;23.62;35.42;101338.44;4915850;28;45524;-79
2021/06/14 02:05:23;;;;;;;;;5.00;5.00;;;;;23.71;35.58;101350.75;4915963;28;45766;-77
2021/06/14 02:07:50;;;;;;;;;8.00;6.50;;;;;23.67;35.72;101344.94;4916668;28;46593;-76
2021/06/14 02:10:16;;;;;;;;;7.50;6.75;;;;;23.72;36.02;101358.59;4922187;28;45589;-79
2021/06/14 02:12:44;;;;;;;;;6.75;6.50;;;;;23.70;35.85;101357.09;4919461;28;45854;-79
2021/06/14 02:15:11;;;;;;;;;6.75;6.00;;;;;23.60;36.12;101340.44;4902065;28;45719;-81
2021/06/14 02:17:40;;;;;;;;;6.00;6.00;;;;;23.54;36.05;101325.09;4919672;28;46427;-79
2021/06/14 02:20:08;;;;;;;;;7.50;7.25;;;;;23.58;36.71;101340.63;4905236;28;48331;-78
2021/06/14 02:22:35;;;;;;;;;6.50;5.50;;;;;23.34;36.83;101308.63;4925795;28;46193;-79
2021/06/14 02:25:02;;;;;;;;;6.00;6.00;;;;;23.48;36.18;101331.16;4925523;28;45853;-80
2021/06/14 02:27:28;;;;;;;;;5.25;4.50;;;;;23.46;36.71;101331.34;4924898;28;45637;-79
2021/06/14 02:29:53;;;;;;;;;6.50;6.00;;;;;23.43;36.26;101334.31;4924242;28;45985;-80
2021/06/14 02:32:19;;;;;;;;;6.25;6.00;;;;;23.31;36.86;101311.66;4918290;28;45756;-81
2021/06/14 02:34:45;;;;;;;;;5.00;5.00;;;;;23.09;36.43;101281.16;4918717;28;45573;-79
2021/06/14 02:37:12;;;;;;;;;6.00;5.25;;;;;23.26;36.63;101306.84;4918497;28;46261;-83
2021/06/14 02:39:38;;;;;;;;;5.50;5.50;;;;;23.28;37.30;101322.69;4918690;28;46353;-82
2021/06/14 02:42:06;;;;;;;;;5.25;5.00;;;;;23.24;36.81;101318.69;4918807;28;45677;-79
2021/06/14 02:44:32;;;;;;;;;7.00;6.25;;;;;23.19;37.33;101311.19;4918884;28;46036;-82
2021/06/14 02:50:21;;;;;;;;;5.00;5.00;;;;;23.12;37.20;101322.75;4917788;28;46127;-78
2021/06/14 02:52:49;;;;;;;;;5.00;5.00;;;;;23.10;37.33;101324.78;4917959;28;45667;-81
2021/06/14 02:55:19;;;;;;;;;5.00;5.00;;;;;23.07;37.70;101320.59;4918410;28;45559;-80
2021/06/14 02:57:51;;;;;;;;;5.00;5.00;;;;;23.04;37.52;101317.44;4916573;28;47315;-79
2021/06/14 03:00:17;;;;;;;;;3.75;3.00;;;;;23.02;37.32;101304.25;4917756;28;46268;-79
2021/06/14 03:02:43;;;;;;;;;5.50;5.50;;;;;22.99;37.50;101315.31;4917734;28;45922;-82
2021/06/14 03:05:10;;;;;;;;;7.00;6.00;;;;;22.89;37.52;101302.09;4918219;28;45854;-80
2021/06/14 03:07:37;;;;;;;;;5.00;5.00;;;;;22.78;37.76;101290.97;4917962;28;45726;-79
2021/06/14 03:10:06;;;;;;;;;5.00;4.25;;;;;22.90;37.59;101316.31;4918146;28;46332;-79
2021/06/14 03:12:31;;;;;;;;;6.00;5.00;;;;;22.87;37.82;101320.16;4917602;28;45801;-80
2021/06/14 03:14:57;;;;;;;;;5.25;5.00;;;;;22.79;37.68;101304.16;4918910;28;45728;-81
2021/06/14 03:20:46;;;;;;;;;7.75;6.00;;;;;22.77;37.87;101319.53;4916822;28;46038;-81
2021/06/14 03:23:14;;;;;;;;;6.00;4.75;;;;;22.76;38.50;101317.03;4917260;28;45745;-79
2021/06/14 03:25:40;;;;;;;;;4.75;4.75;;;;;22.72;38.42;101313.88;4917879;28;45636;-79
2021/06/14 03:28:07;;;;;;;;;5.25;5.00;;;;;22.67;38.10;101307.34;4917798;28;45677;-81
2021/06/14 03:30:34;;;;;;;;;6.25;5.00;;;;;22.67;38.33;101307.34;4917076;28;48446;-78
2021/06/14 03:33:04;;;;;;;;;5.00;5.00;;;;;22.44;38.20;101273.31;4919387;28;45896;-81
2021/06/14 03:35:30;;;;;;;;;5.75;5.00;;;;;22.59;38.37;101309.00;4919125;28;45838;-81
2021/06/14 03:37:56;;;;;;;;;5.50;5.50;;;;;22.50;38.34;101296.69;4919004;28;45725;-79
2021/06/14 03:40:22;;;;;;;;;6.00;6.00;;;;;22.62;38.58;101325.72;4921119;28;46362;-80
2021/06/14 03:42:48;;;;;;;;;4.00;4.00;;;;;22.56;38.72;101316.53;4920943;28;45800;-81
2021/06/14 03:45:14;;;;;;;;;6.00;4.75;;;;;22.57;38.71;101328.88;4919401;28;45841;-79
2021/06/14 03:51:02;;;;;;;;;6.00;6.00;;;;;22.53;38.77;101331.06;4918474;28;45699;-82
2021/06/14 03:53:31;;;;;;;;;4.50;4.25;;;;;22.46;39.25;101330.06;4917258;28;45745;-80
2021/06/14 03:56:04;;;;;;;;;5.00;5.00;;;;;22.46;39.29;101334.56;4919907;28;45801;-80
2021/06/14 03:58:30;;;;;;;;;5.25;5.00;;;;;22.46;39.14;101340.75;4918977;28;45581;-80
2021/06/14 04:00:55;;;;;;;;;5.25;4.25;;;;;22.43;38.95;101335.75;4919429;28;46666;-82
2021/06/14 04:03:24;;;;;;;;;6.75;5.00;;;;;22.32;38.93;101316.56;4919872;28;45664;-81
2021/06/14 04:05:53;;;;;;;;;5.75;4.75;;;;;22.36;39.47;101332.06;4919278;28;45683;-79
2021/06/14 04:08:19;;;;;;;;;5.00;4.75;;;;;22.36;39.36;101334.75;4922139;28;48680;-81
2021/06/14 04:10:44;;;;;;;;;6.25;5.75;;;;;22.26;39.31;101322.56;4906717;28;46630;-84
2021/06/14 04:13:10;;;;;;;;;5.00;5.00;;;;;22.34;39.19;101331.41;4923842;28;45505;-80
2021/06/14 04:15:36;;;;;;;;;4.00;4.00;;;;;22.33;39.39;101328.91;4923429;28;45564;-80
2021/06/14 04:21:23;;;;;;;;;6.50;6.00;;;;;22.10;39.43;101300.22;4916692;28;46456;-78
2021/06/14 04:23:49;;;;;;;;;5.00;5.00;;;;;22.28;39.68;101334.75;4916905;28;45697;-79
2021/06/14 04:26:14;;;;;;;;;5.25;4.75;;;;;22.12;40.12;101314.22;4917119;28;45776;-81
2021/06/14 04:28:40;;;;;;;;;4.75;4.75;;;;;22.19;40.18;101325.06;4916904;28;45544;-81
2021/06/14 04:31:06;;;;;;;;;5.50;5.00;;;;;22.26;39.81;101342.09;4916649;28;45672;-81
2021/06/14 04:33:32;;;;;;;;;4.75;4.50;;;;;22.25;39.98;101340.41;4915899;28;45545;-79
2021/06/14 04:35:57;;;;;;;;;6.00;5.50;;;;;22.21;39.95;101335.56;4917005;28;45732;-81
2021/06/14 04:38:23;;;;;;;;;5.25;5.25;;;;;22.11;39.69;101330.41;4916930;28;45946;-80
2021/06/14 04:40:48;;;;;;;;;6.75;6.00;;;;;22.20;40.21;101342.75;4916374;28;45749;-79
2021/06/14 04:43:14;;;;;;;;;6.25;6.00;;;;;22.15;40.18;101339.75;4916349;28;45648;-80
2021/06/14 04:45:39;;;;;;;;;7.50;7.00;;;;;22.21;40.13;101360.44;4916836;28;45619;-80
2021/06/14 04:51:07;;;;;;;;;6.00;5.00;;;;;22.09;40.73;101348.41;4916691;28;45883;-81
2021/06/14 04:53:33;;;;;;;;;6.00;6.00;;;;;22.09;40.26;101343.06;4916339;28;45537;-83
2021/06/14 04:55:58;;;;;;;;;9.00;8.00;;;;;22.15;40.62;101355.75;4919796;28;45691;-82
2021/06/14 04:58:24;;;;;;;;;8.25;8.25;;;;;22.09;40.78;101348.41;4920463;28;45731;-80
2021/06/14 05:00:49;;;;;;;;;8.25;8.25;;;;;21.91;41.46;101326.38;4921329;28;45736;-81
2021/06/14 05:06:37;;;;;;;;;8.25;8.00;;;;;22.01;41.55;101373.28;4917777;28;45613;-82
2021/06/14 05:09:02;;;;;;;;;8.50;8.50;;;;;21.96;41.63;101380.94;4917524;28;46545;-82
2021/06/14 05:11:28;;;;;;;;;8.25;8.25;;;;;21.92;41.68;101378.72;4916345;28;46003;-80
2021/06/14 05:13:53;;;;;;;;;7.75;7.00;;;;;21.88;42.40;101391.56;4917786;28;45590;-82
2021/06/14 05:16:19;;;;;;;;;9.25;8.00;;;;;21.75;42.32;101378.66;4918754;28;45812;-82
2021/06/14 05:22:06;;;;;;;;;8.00;7.75;;;;;21.65;42.96;101388.66;4916551;28;45976;-79
2021/06/14 05:24:32;;;;;;;;;9.50;9.00;;;;;21.61;43.13;101391.81;4917345;28;45993;-78
2021/06/14 05:26:58;;;;;;;;;7.75;7.25;;;;;21.55;43.24;101403.94;4917136;28;45600;-78
2021/06/14 05:29:24;;;;;;;;;8.75;8.00;;;;;21.29;43.42;101357.84;4916397;28;46755;-82
2021/06/14 05:31:49;;;;;;;;;9.00;8.25;;;;;21.48;43.67;101400.28;4915670;28;46152;-81
2021/06/14 05:34:15;;;;;;;;;9.00;8.00;;;;;21.30;43.25;101368.34;4899155;28;45672;-80
2021/06/14 05:36:41;;;;;;;;;7.50;7.50;;;;;21.23;43.42;101364.66;4916352;28;45670;-83
2021/06/14 05:39:08;;;;;;;;;10.25;9.00;;;;;21.40;43.31;101381.56;4916457;28;45678;-82
2021/06/14 05:41:33;;;;;;;;;7.25;7.00;;;;;21.18;43.52;101342.97;4915823;28;46337;-85
2021/06/14 05:43:59;;;;;;;;;9.25;8.00;;;;;21.34;43.68;101372.38;4898350;28;45747;-83
2021/06/14 05:46:25;;;;;;;;;10.25;9.25;;;;;21.35;43.41;101378.53;4916194;28;45771;-79
2021/06/14 05:52:12;;;;;;;;;10.75;8.75;;;;;21.20;43.49;101341.00;4915089;28;45756;-84
2021/06/14 05:54:37;;;;;;;;;9.50;9.00;;;;;21.38;43.45;101367.53;4916075;28;45634;-81
2021/06/14 05:57:03;;;;;;;;;9.75;9.50;;;;;21.49;43.25;101377.06;4916555;28;45530;-81
2021/06/14 05:59:29;;;;;;;;;9.00;8.50;;;;;21.46;43.39;101378.25;4916497;28;45556;-82
2021/06/14 06:01:54;;;;;;;;;8.00;7.25;;;;;21.25;43.69;101337.84;4916433;28;46605;-83
2021/06/14 06:07:42;;;;;;;;;10.75;8.75;;;;;21.50;43.80;101374.25;4916534;28;45576;-84
2021/06/14 06:10:09;;;;;;;;;7.75;6.75;;;;;21.59;43.33;101393.81;4916332;28;45616;-81
2021/06/14 06:12:35;;;;;;;;;9.00;7.25;;;;;21.61;43.69;101400.63;4916413;28;46196;-81
2021/06/14 06:15:02;;;;;;;;;8.50;7.00;;;;;21.61;43.59;101391.81;4916399;28;45754;-80
2021/06/14 06:17:28;;;;;;;;;10.00;10.00;;;;;21.68;43.72;101398.16;4916340;28;45979;-80
2021/06/14 06:19:54;;;;;;;;;9.00;9.00;;;;;21.71;43.75;101404.00;4915899;28;45926;-80
2021/06/14 06:22:19;;;;;;;;;9.25;8.75;;;;;21.60;43.69;101368.78;4915677;28;46313;-81
2021/06/14 06:24:45;;;;;;;;;11.25;9.00;;;;;21.70;43.59;101388.19;4915756;28;46002;-80
2021/06/14 06:27:12;;;;;;;;;9.25;8.00;;;;;21.81;43.65;101392.38;4916004;28;45803;-80
2021/06/14 06:29:38;;;;;;;;;11.00;9.00;;;;;21.83;43.55;101385.88;4916099;28;45652;-80
2021/06/14 06:32:05;;;;;;;;;7.75;7.75;;;;;21.88;43.06;101382.72;4915321;28;47118;-79
2021/06/14 06:37:52;;;;;;;;;9.00;9.00;;;;;21.90;43.43;101373.56;4915931;28;45620;-80
2021/06/14 06:40:18;;;;;;;;;12.00;10.75;;;;;21.94;43.11;101364.25;4898490;28;47365;-79
2021/06/14 06:42:44;;;;;;;;;13.25;10.00;;;;;22.01;43.47;101377.78;4915463;28;46499;-80
2021/06/14 06:45:12;;;;;;;;;9.00;8.75;;;;;22.00;43.44;101365.44;4915970;28;45611;-80
2021/06/14 06:47:37;;;;;;;;;9.00;8.50;;;;;22.07;43.24;101377.97;4916190;28;45642;-81
2021/06/14 06:50:04;;;;;;;;;11.75;9.50;;;;;21.89;43.21;101337.19;4915582;28;46314;-79
2021/06/14 06:52:30;;;;;;;;;7.75;7.50;;;;;21.94;42.91;101340.22;4915458;28;45982;-80
2021/06/14 06:54:55;;;;;;;;;12.25;9.75;;;;;22.02;43.17;101344.75;4915767;28;45861;-80
2021/06/14 06:57:20;;;;;;;;;8.00;8.00;;;;;22.16;42.59;101363.63;4918534;28;45705;-81
2021/06/14 06:59:46;;;;;;;;;9.75;9.25;;;;;22.24;42.44;101362.75;4919022;28;46427;-79
2021/06/14 07:02:12;;;;;;;;;6.25;6.25;;;;;22.30;42.62;101372.78;4918950;28;46052;-79
2021/06/14 07:07:59;;;;;;;;;9.00;8.75;;;;;22.38;42.75;101367.47;4919522;28;45725;-81
2021/06/14 07:10:25;;;;;;;;;12.50;8.00;;;;;22.30;42.11;101346.09;4921677;28;45744;-81
2021/06/14 07:12:51;;;;;;;;;8.75;7.25;;;;;22.45;42.66;101363.13;4921096;28;46473;-79
2021/06/14 07:15:17;;;;;;;;;7.00;6.00;;;;;22.25;42.52;101320.88;4919940;28;45587;-81
2021/06/14 07:17:43;;;;;;;;;11.00;10.00;;;;;22.30;42.34;101321.22;4921880;28;45722;-80
2021/06/14 07:20:11;;;;;;;;;11.25;10.25;;;;;22.52;42.47;101348.06;4920387;28;45521;-80
2021/06/14 07:22:38;;;;;;;;;9.25;8.75;;;;;22.25;42.05;101303.03;4919117;28;46127;-81
2021/06/14 07:25:05;;;;;;;;;13.25;10.00;;;;;22.66;42.38;101353.75;4919709;28;45521;-80
2021/06/14 07:27:32;;;;;;;;;12.75;10.75;;;;;22.71;42.49;101354.94;4923875;28;46031;-79
2021/06/14 07:29:59;;;;;;;;;10.75;9.25;;;;;22.76;42.03;101355.28;4924755;28;46483;-81
2021/06/14 07:32:24;;;;;;;;;12.00;9.00;;;;;22.80;42.07;101348.56;4922036;28;46419;-81
2021/06/14 07:38:15;;;;;;;;;9.75;8.50;;;;;22.90;41.92;101356.41;4922283;28;45703;-85
2021/06/14 07:40:41;;;;;;;;;11.50;10.25;;;;;22.75;41.55;101326.03;4922743;28;46786;-85
2021/06/14 07:43:10;;;;;;;;;10.25;9.00;;;;;22.84;41.73;101336.53;4917680;28;48303;-86
2021/06/14 07:45:35;;;;;;;;;9.50;8.75;;;;;23.04;41.62;101358.38;4919657;28;45695;-82
2021/06/14 07:48:00;;;;;;;;;12.50;10.75;;;;;23.09;41.28;101349.84;4901804;28;45958;-82
2021/06/14 07:50:26;;;;;;;;;11.00;10.00;;;;;23.13;41.57;101349.31;4918521;28;47373;-82
2021/06/14 07:52:51;;;;;;;;;9.50;9.25;;;;;23.18;42.00;101343.44;4918643;28;45689;-84
2021/06/14 07:55:17;;;;;;;;;10.50;9.50;;;;;23.22;40.81;101342.94;4918971;28;45969;-83
2021/06/14 07:57:42;;;;;;;;;9.00;8.25;;;;;23.20;41.54;101333.44;4917265;28;45887;-79
2021/06/14 08:00:10;;;;;;;;;12.00;11.50;;;;;23.29;40.76;101337.72;4918345;28;46419;-79
2021/06/14 08:02:36;;;;;;;;;8.75;8.00;;;;;23.25;41.04;101318.53;4917775;28;46198;-81
2021/06/14 08:08:23;;;;;;;;;9.00;8.00;;;;;23.44;40.93;101333.31;4917940;28;45654;-78
2021/06/14 08:10:50;;;;;;;;;7.75;7.50;;;;;23.42;40.84;101314.78;4916298;28;47723;-83
2021/06/14 08:13:16;;;;;;;;;8.75;8.00;;;;;23.56;40.40;101333.78;4900595;28;47247;-78
2021/06/14 08:15:42;;;;;;;;;10.00;9.25;;;;;23.56;40.49;101334.63;4918283;28;45849;-79
2021/06/14 08:26:07;;;;;;;;;9.75;9.00;;;;;23.75;39.51;101328.81;4917858;28;45565;-78
2021/06/14 08:28:32;;;;;;;;;10.00;10.00;;;;;23.83;39.64;101331.44;4917612;28;45810;-80
2021/06/14 08:30:58;;;;;;;;;8.75;7.75;;;;;23.66;39.83;101286.22;4917695;28;46779;-78
2021/06/14 08:33:23;;;;;;;;;9.00;8.00;;;;;23.94;39.56;101324.84;4917218;28;46075;-79
2021/06/14 08:35:49;;;;;;;;;8.50;8.00;;;;;23.97;39.60;101315.63;4917612;28;45540;-79
2021/06/14 08:38:14;;;;;;;;;9.75;9.50;;;;;23.88;39.54;101290.75;4917509;28;45836;-81
2021/06/14 08:40:40;;;;;;;;;10.00;8.75;;;;;24.04;38.82;101303.19;4917582;28;46473;-79
2021/06/14 08:43:08;;;;;;;;;10.50;8.25;;;;;24.14;39.29;101312.63;4917314;28;46223;-79
2021/06/14 08:45:36;;;;;;;;;10.25;7.75;;;;;24.18;39.25;101313.97;4917116;28;45615;-81
2021/06/14 08:48:04;;;;;;;;;8.00;8.00;;;;;24.22;39.29;101306.41;4917418;28;45561;-83
2021/06/14 08:53:52;;;;;;;;;8.00;8.00;;;;;24.37;38.84;101309.13;4917191;28;45838;-82
2021/06/14 08:56:20;;;;;;;;;10.50;8.75;;;;;24.33;38.31;101287.22;4917510;28;45710;-81
2021/06/14 08:58:50;;;;;;;;;8.50;8.25;;;;;24.47;38.47;101302.50;4917333;28;45789;-84
2021/06/14 09:01:16;;;;;;;;;9.25;6.75;;;;;24.31;38.24;101264.31;4899768;28;48590;-82
2021/06/14 09:03:41;;;;;;;;;7.00;7.00;;;;;24.44;38.05;101269.88;4899896;28;46069;-80
2021/06/14 09:06:07;;;;;;;;;10.00;8.50;;;;;24.52;37.72;101278.66;4917325;28;45508;-83
2021/06/14 09:08:32;;;;;;;;;9.00;8.25;;;;;24.50;38.15;101267.31;4915935;28;45653;-82
2021/06/14 09:10:58;;;;;;;;;7.00;7.00;;;;;24.54;37.67;101267.75;4917200;28;45662;-84
2021/06/14 09:13:31;;;;;;;;;8.50;7.00;;;;;24.68;37.51;101275.78;4917383;28;46135;-84
2021/06/14 09:16:12;;;;;;;;;7.25;6.50;;;;;24.72;37.29;101273.59;4917137;28;45571;-81
2021/06/14 09:18:40;;;;;;;;;6.00;6.00;;;;;24.83;37.24;101283.03;4914699;28;45592;-82
2021/06/14 09:21:09;;;;;;;;;7.50;7.50;;;;;24.88;37.20;101289.53;4916930;28;46334;-83
2021/06/14 09:23:58;;;;;;;;;9.00;7.75;;;;;24.93;37.07;101289.81;4899813;28;48319;-79
2021/06/14 09:26:29;;;;;;;;;7.50;7.00;;;;;24.98;36.75;101290.06;4917332;28;45472;-82
2021/06/14 09:29:02;;;;;;;;;6.25;6.00;;;;;24.98;36.80;101291.91;4917731;28;45641;-82
2021/06/14 09:31:35;;;;;;;;;7.75;7.00;;;;;25.00;35.98;101273.78;4917287;28;45710;-81
2021/06/14 09:34:01;;;;;;;;;8.25;7.00;;;;;25.00;35.79;101266.56;4917026;28;45653;-81
2021/06/14 09:36:27;;;;;;;;;8.00;7.00;;;;;25.16;35.32;101291.50;4918962;28;45671;-79
2021/06/14 09:38:52;;;;;;;;;6.00;6.00;;;;;25.22;35.49;101285.41;4919020;28;45692;-82
2021/06/14 09:41:19;;;;;;;;;7.75;7.00;;;;;25.18;35.65;101258.13;4918554;28;46118;-83
2021/06/14 09:43:47;;;;;;;;;5.50;5.25;;;;;25.23;34.92;101265.59;4918115;28;45805;-82
2021/06/14 09:46:28;;;;;;;;;9.75;8.25;;;;;25.30;35.12;101266.53;4919170;28;45611;-80
2021/06/14 09:48:58;;;;;;;;;6.00;5.75;;;;;25.39;34.85;101270.75;4921733;28;45972;-82
2021/06/14 09:51:24;;;;;;;;;7.00;6.50;;;;;25.39;34.65;101255.47;4922835;28;45939;-81
2021/06/14 09:53:53;;;;;;;;;8.25;7.00;;;;;25.55;34.07;101265.16;4921209;28;45707;-82
2021/06/14 09:56:36;;;;;;;;;8.25;7.00;;;;;25.58;33.92;101272.88;4920500;28;45619;-82
2021/06/14 09:59:03;;;;;;;;;6.75;6.75;;;;;25.66;33.36;101278.09;4918015;28;45758;-83
2021/06/14 10:01:34;;;;;;;;;5.00;5.00;;;;;25.69;33.41;101272.34;4899260;28;48737;-84
2021/06/14 10:04:06;;;;;;;;;6.25;5.75;;;;;25.58;33.27;101254.06;4917146;28;46075;-82
2021/06/14 10:06:31;;;;;;;;;6.00;5.25;;;;;25.79;33.02;101278.25;4917546;28;45506;-81
2021/06/14 10:08:57;;;;;;;;;7.00;6.50;;;;;25.61;32.54;101253.69;4917012;28;45772;-83
2021/06/14 10:11:22;;;;;;;;;6.00;5.75;;;;;25.87;32.11;101277.25;4918747;28;46220;-83
2021/06/14 10:13:49;;;;;;;;;6.00;6.00;;;;;25.89;32.52;101273.38;4916959;28;45759;-83
2021/06/14 10:16:23;;;;;;;;;6.00;5.00;;;;;25.82;32.25;101248.31;4917204;28;45674;-81
2021/06/14 10:18:58;;;;;;;;;5.25;4.75;;;;;25.82;32.24;101245.63;4916523;28;45663;-80
2021/06/14 10:21:39;;;;;;;;;6.50;5.50;;;;;26.01;32.40;101257.56;4916234;28;45867;-84
2021/06/14 10:24:09;;;;;;;;;6.50;6.00;;;;;26.14;31.91;101275.63;4916641;28;46085;-82
2021/06/14 10:26:37;;;;;;;;;7.75;7.50;;;;;26.16;31.37;101271.75;4917463;28;45762;-85
2021/06/14 10:29:06;;;;;;;;;7.00;6.25;;;;;26.05;31.38;101253.47;4917424;28;45755;-86
2021/06/14 10:31:33;;;;;;;;;5.00;5.00;;;;;26.22;31.22;101267.44;4919880;28;45660;-85
2021/06/14 10:33:58;;;;;;;;;5.50;5.00;;;;;26.05;30.91;101239.19;4919936;28;46310;-82
2021/06/14 10:36:27;;;;;;;;;6.50;5.00;;;;;26.08;30.77;101226.19;4921917;28;45553;-86
2021/06/14 10:38:54;;;;;;;;;5.75;5.00;;;;;26.38;30.35;101277.94;4921627;28;45662;-83
2021/06/14 10:41:21;;;;;;;;;6.00;6.00;;;;;26.31;30.22;101258.25;4918923;28;46675;-82
2021/06/14 10:43:47;;;;;;;;;6.00;5.00;;;;;26.43;30.29;101270.13;4919375;28;45858;-82
2021/06/14 10:46:15;;;;;;;;;6.75;5.75;;;;;26.47;30.26;101259.78;4919627;28;45608;-82
2021/06/14 10:48:42;;;;;;;;;5.25;4.75;;;;;26.54;29.85;101266.88;4901922;28;46006;-83
2021/06/14 10:54:45;;;;;;;;;4.00;4.00;;;;;26.66;30.09;101267.16;4918916;28;45732;-82
2021/06/14 10:57:13;;;;;;;;;4.75;4.00;;;;;26.69;29.62;101259.53;4919211;28;45680;-80
2021/06/14 10:59:40;;;;;;;;;5.00;5.00;;;;;26.76;29.79;101266.81;4919390;28;45663;-83
2021/06/14 11:02:14;;;;;;;;;6.75;5.00;;;;;26.80;30.03;101266.19;4918826;28;45725;-83
2021/06/14 11:04:41;;;;;;;;;3.75;3.75;;;;;26.71;29.10;101245.88;4918801;28;46205;-82
2021/06/14 11:07:07;;;;;;;;;5.00;5.00;;;;;26.72;29.65;101239.47;4919130;28;45833;-81
2021/06/14 11:09:52;;;;;;;;;5.25;4.50;;;;;26.89;29.34;101264.19;4902024;28;45986;-82
2021/06/14 11:12:25;;;;;;;;;6.25;5.50;;;;;26.91;29.27;101257.59;4919153;28;45602;-81
2021/06/14 11:14:51;;;;;;;;;5.50;5.25;;;;;26.87;29.21;101247.41;4917773;28;47152;-81
2021/06/14 11:17:22;;;;;;;;;5.00;5.00;;;;;26.98;28.91;101254.94;4919328;28;45618;-82
2021/06/14 11:20:00;;;;;;;;;5.50;4.50;;;;;27.00;28.82;101259.06;4919309;28;45526;-82
2021/06/14 11:22:43;;;;;;;;;7.25;5.00;;;;;27.01;28.89;101254.53;4918756;28;46316;-80
2021/06/14 11:25:18;;;;;;;;;7.00;7.00;;;;;27.08;28.86;101263.47;4918747;28;46012;-84
2021/06/14 11:27:44;;;;;;;;;5.25;5.25;;;;;27.08;28.87;101244.63;4919080;28;45735;-83
2021/06/14 11:30:15;;;;;;;;;6.75;6.75;;;;;27.15;28.73;101246.31;4919625;28;45740;-82
2021/06/14 11:32:40;;;;;;;;;4.75;4.50;;;;;27.22;28.29;101250.88;4922022;28;47164;-81
2021/06/14 11:35:07;;;;;;;;;5.00;5.00;;;;;27.25;28.09;101248.63;4921596;28;46370;-83
2021/06/14 11:37:44;;;;;;;;;6.25;6.00;;;;;27.23;28.61;101239.91;4919607;28;45497;-83
2021/06/14 11:40:13;;;;;;;;;6.50;4.75;;;;;27.28;27.87;101236.63;4920039;28;45794;-81
2021/06/14 11:42:54;;;;;;;;;5.00;5.00;;;;;27.30;27.99;101235.41;4922087;28;46915;-80
2021/06/14 11:45:32;;;;;;;;;6.75;6.00;;;;;27.28;27.89;101231.22;4926825;28;46176;-80
2021/06/14 11:48:01;;;;;;;;;6.00;4.75;;;;;27.35;27.85;101242.84;4925301;28;45593;-81
2021/06/14 11:50:29;;;;;;;;;6.00;6.00;;;;;27.26;27.97;101212.59;4926249;28;45543;-80
2021/06/14 11:53:00;;;;;;;;;4.25;4.25;;;;;27.44;27.22;101229.00;4924823;28;45795;-81
2021/06/14 11:55:28;;;;;;;;;4.75;4.75;;;;;27.38;27.31;101219.03;4904358;28;47700;-82
2021/06/14 11:57:59;;;;;;;;;6.00;6.00;;;;;27.47;27.47;101220.53;4921153;28;45922;-82
2021/06/14 12:00:32;;;;;;;;;5.00;4.25;;;;;27.33;26.70;101197.28;4923644;28;45605;-82
2021/06/14 12:02:58;;;;;;;;;5.75;5.00;;;;;27.48;26.98;101214.09;4920977;28;45551;-81
2021/06/14 12:05:34;;;;;;;;;5.75;5.00;;;;;27.55;26.40;101214.13;4922756;28;46318;-82
2021/06/14 12:08:05;;;;;;;;;5.25;5.25;;;;;27.48;26.92;101202.47;4922803;28;45553;-80
2021/06/14 12:10:31;;;;;;;;;4.25;4.25;;;;;27.55;26.56;101201.50;4921852;28;45656;-81
2021/06/14 12:13:05;;;;;;;;;4.50;4.50;;;;;27.67;26.54;101209.81;4917903;28;45547;-81
2021/06/14 12:15:31;;;;;;;;;6.00;5.00;;;;;27.63;26.89;101189.72;4918097;28;46296;-81
2021/06/14 12:17:57;;;;;;;;;6.00;6.00;;;;;27.64;26.07;101175.19;4900735;28;45641;-82
2021/06/14 12:20:27;;;;;;;;;6.75;5.25;;;;;27.59;26.46;101158.00;4918617;28;45743;-83
2021/06/14 12:23:04;;;;;;;;;8.00;6.00;;;;;27.85;25.87;101190.34;4919000;28;46808;-82
2021/06/14 12:25:31;;;;;;;;;5.00;5.00;;;;;27.87;26.31;101189.09;4919224;28;46334;-83
2021/06/14 12:28:02;;;;;;;;;5.50;5.50;;;;;27.94;26.12;101191.78;4918997;28;45784;-84
2021/06/14 12:30:28;;;;;;;;;5.50;5.00;;;;;27.98;26.13;101185.75;4919701;28;45832;-81
2021/06/14 12:32:55;;;;;;;;;5.00;4.25;;;;;27.93;26.36;101176.66;4921354;28;45721;-82
2021/06/14 12:35:22;;;;;;;;;4.75;4.50;;;;;27.98;26.60;101161.50;4924747;28;46023;-82
2021/06/14 12:37:49;;;;;;;;;5.75;5.75;;;;;28.06;26.19;101173.13;4925875;28;45697;-86